Time;durP1;ratioP1;P1;durP2;ratioP2;P2;SDS_P1;SDS_P2;PMS_P1;PMS_P2;Temp;Humidity;BMP_temperature;BMP_pressure;BME280_temperature;BME280_humidity;BME280_pressure;Samples;Min_cycle;Max_cycle;Signal;HPM_P1;HPM_P2
2024/02/04 00:01:19;;;;;;;0.00;0.00;;;26.10;37.60;;;;;;4995088;28;20213;-50
2024/02/04 00:03:52;;;;;;;0.00;0.00;;;26.00;37.60;;;;;;5007824;28;20192;-50
2024/02/04 00:06:23;;;;;;;0.00;0.00;;;26.10;36.40;;;;;;5008142;28;20204;-53
2024/02/04 00:08:54;;;;;;;0.00;0.00;;;26.10;36.20;;;;;;5008319;28;20507;-47
2024/02/04 00:11:25;;;;;;;0.00;0.00;;;26.10;35.90;;;;;;5007715;28;20211;-44
2024/02/04 00:13:56;;;;;;;0.00;0.00;;;26.20;36.10;;;;;;5008216;28;20269;-47
2024/02/04 00:16:27;;;;;;;0.00;0.00;;;26.20;36.20;;;;;;5008160;28;20224;-42
2024/02/04 00:19:00;;;;;;;0.00;0.00;;;26.20;36.40;;;;;;5003579;28;20215;-42
2024/02/04 00:21:31;;;;;;;0.00;0.00;;;26.30;36.70;;;;;;4988612;28;20201;-45
2024/02/04 00:24:01;;;;;;;0.00;0.00;;;26.40;37.00;;;;;;4989004;28;20527;-45
2024/02/04 00:26:32;;;;;;;0.00;0.00;;;26.40;37.10;;;;;;4988067;28;20207;-42
2024/02/04 00:29:03;;;;;;;0.00;0.00;;;26.40;37.20;;;;;;4998594;28;20228;-44
2024/02/04 00:31:34;;;;;;;0.00;0.00;;;26.50;37.40;;;;;;5007221;28;20279;-45
2024/02/04 00:34:07;;;;;;;0.00;0.00;;;26.50;37.60;;;;;;5008277;28;20844;-45
2024/02/04 00:36:38;;;;;;;0.00;0.00;;;26.50;37.70;;;;;;5006905;28;20224;-47
2024/02/04 00:39:09;;;;;;;0.00;0.00;;;26.50;37.90;;;;;;5007451;28;20209;-45
2024/02/04 00:41:40;;;;;;;0.00;0.00;;;26.50;38.00;;;;;;5004490;28;20751;-47
2024/02/04 00:44:10;;;;;;;0.00;0.00;;;26.50;38.10;;;;;;4988792;28;20252;-48
2024/02/04 00:46:41;;;;;;;0.00;0.00;;;26.50;38.30;;;;;;4987914;28;20201;-47
2024/02/04 00:49:14;;;;;;;0.00;0.00;;;26.60;38.40;;;;;;4988402;28;20269;-45
2024/02/04 00:51:45;;;;;;;0.00;0.00;;;26.60;38.40;;;;;;5000292;28;20205;-45
2024/02/04 00:54:16;;;;;;;0.00;0.00;;;26.60;38.30;;;;;;5008089;28;20632;-46
2024/02/04 00:56:47;;;;;;;0.00;0.00;;;26.60;38.90;;;;;;5007404;28;20267;-47
2024/02/04 00:59:17;;;;;;;0.00;0.00;;;26.60;38.30;;;;;;5006548;28;20200;-45
2024/02/04 01:01:48;;;;;;;0.00;0.00;;;26.60;38.40;;;;;;5007142;28;20197;-45
2024/02/04 01:04:22;;;;;;;0.00;0.00;;;26.70;38.40;;;;;;5009361;28;20259;-45
2024/02/04 01:06:53;;;;;;;0.03;0.03;;;26.70;38.50;;;;;;5011361;28;20224;-47
2024/02/04 01:09:24;;;;;;;0.00;0.00;;;26.70;38.60;;;;;;5010780;28;20775;-46
2024/02/04 01:11:55;;;;;;;0.00;0.00;;;26.80;38.70;;;;;;5011022;28;20292;-46
2024/02/04 01:14:26;;;;;;;0.00;0.00;;;26.80;38.80;;;;;;5011849;28;20205;-48
2024/02/04 01:16:57;;;;;;;0.00;0.00;;;26.80;38.90;;;;;;5010992;28;20228;-45
2024/02/04 01:19:30;;;;;;;0.00;0.00;;;26.80;39.20;;;;;;5011465;28;20215;-47
2024/02/04 01:22:00;;;;;;;0.00;0.00;;;26.90;39.40;;;;;;5010563;28;20307;-42
2024/02/04 01:24:31;;;;;;;0.00;0.00;;;26.90;39.50;;;;;;5005717;28;20193;-44
2024/02/04 01:27:02;;;;;;;0.00;0.00;;;26.90;39.50;;;;;;4991227;28;20728;-48
2024/02/04 01:29:33;;;;;;;0.00;0.00;;;26.90;39.50;;;;;;4990965;28;20229;-45
2024/02/04 01:32:04;;;;;;;0.00;0.00;;;26.90;39.60;;;;;;4991629;28;20721;-47
2024/02/04 01:34:37;;;;;;;0.00;0.00;;;26.90;39.60;;;;;;5001422;28;20256;-45
2024/02/04 01:37:08;;;;;;;0.00;0.00;;;26.90;40.30;;;;;;5011318;28;20224;-49
2024/02/04 01:39:38;;;;;;;0.00;0.00;;;27.00;39.70;;;;;;5010424;28;20208;-45
2024/02/04 01:42:09;;;;;;;0.00;0.00;;;27.00;39.70;;;;;;5011494;28;20213;-47
2024/02/04 01:44:40;;;;;;;0.00;0.00;;;27.00;39.70;;;;;;5010667;28;20201;-45
2024/02/04 01:47:12;;;;;;;0.00;0.00;;;27.00;39.60;;;;;;5010148;28;20216;-46
2024/02/04 01:49:46;;;;;;;0.00;0.00;;;27.10;39.80;;;;;;5009785;28;20231;-45
2024/02/04 01:52:17;;;;;;;0.00;0.00;;;27.10;39.90;;;;;;5010155;28;20208;-46
2024/02/04 01:54:49;;;;;;;0.00;0.00;;;27.10;39.80;;;;;;5011355;28;20292;-47
2024/02/04 01:57:21;;;;;;;0.00;0.00;;;27.10;39.80;;;;;;5010019;28;20541;-45
2024/02/04 01:59:54;;;;;;;0.00;0.00;;;27.10;39.80;;;;;;5010531;28;20201;-48
2024/02/04 02:02:25;;;;;;;0.00;0.00;;;27.20;39.80;;;;;;5009496;28;20193;-46
2024/02/04 02:04:59;;;;;;;0.00;0.00;;;27.30;39.70;;;;;;5010264;28;20295;-48
2024/02/04 02:07:33;;;;;;;0.00;0.00;;;27.30;39.60;;;;;;5010454;28;20229;-47
2024/02/04 02:10:07;;;;;;;0.00;0.00;;;27.30;39.70;;;;;;5010271;28;20208;-47
2024/02/04 02:12:42;;;;;;;0.00;0.00;;;27.30;39.70;;;;;;5007035;28;20661;-47
2024/02/04 02:15:17;;;;;;;0.00;0.00;;;27.30;39.70;;;;;;5010029;28;20430;-45
2024/02/04 02:17:55;;;;;;;0.00;0.00;;;27.30;40.50;;;;;;5010099;28;20220;-48
2024/02/04 02:20:35;;;;;;;0.00;0.00;;;27.40;39.80;;;;;;5010215;28;20201;-43
2024/02/04 02:23:14;;;;;;;0.00;0.00;;;27.40;39.80;;;;;;5010479;28;20200;-47
2024/02/04 02:25:48;;;;;;;0.00;0.00;;;27.40;39.90;;;;;;5010717;28;20582;-45
2024/02/04 02:28:19;;;;;;;0.00;0.00;;;27.40;39.80;;;;;;5009296;28;20231;-46
2024/02/04 02:30:53;;;;;;;0.00;0.00;;;27.40;39.90;;;;;;5011717;28;20207;-49
2024/02/04 02:33:24;;;;;;;0.00;0.00;;;27.50;40.10;;;;;;5013668;28;20197;-47
2024/02/04 02:36:00;;;;;;;0.00;0.00;;;27.50;40.20;;;;;;5009323;28;20199;-46
2024/02/04 02:38:40;;;;;;;0.00;0.00;;;27.50;40.10;;;;;;5013026;28;20718;-47
2024/02/04 02:41:15;;;;;;;0.00;0.00;;;27.50;40.00;;;;;;5013193;28;20200;-47
2024/02/04 02:43:49;;;;;;;0.00;0.00;;;27.60;39.80;;;;;;5012685;28;20586;-46
2024/02/04 02:46:21;;;;;;;0.00;0.00;;;27.60;39.60;;;;;;5013119;28;20204;-47
2024/02/04 02:48:52;;;;;;;0.00;0.00;;;27.60;39.40;;;;;;5012327;28;20326;-47
2024/02/04 02:51:22;;;;;;;0.00;0.00;;;27.70;39.20;;;;;;5013272;28;20200;-47
2024/02/04 02:53:53;;;;;;;0.00;0.00;;;27.70;39.10;;;;;;5013205;28;20292;-47
2024/02/04 02:56:26;;;;;;;0.00;0.00;;;27.70;38.90;;;;;;5013116;28;20292;-47
2024/02/04 02:58:57;;;;;;;0.00;0.00;;;27.80;38.90;;;;;;5013070;28;20217;-47
2024/02/04 03:01:28;;;;;;;0.00;0.00;;;27.80;38.90;;;;;;5012708;28;20620;-47
2024/02/04 03:03:59;;;;;;;0.00;0.00;;;27.80;38.80;;;;;;5012388;28;20621;-48
2024/02/04 03:06:30;;;;;;;0.00;0.00;;;27.80;38.80;;;;;;5012703;28;20206;-48
2024/02/04 03:09:01;;;;;;;0.00;0.00;;;27.90;38.90;;;;;;5012423;28;20232;-49
2024/02/04 03:11:34;;;;;;;0.00;0.00;;;27.90;38.60;;;;;;5012504;28;20205;-46
2024/02/04 03:14:05;;;;;;;0.00;0.00;;;27.90;38.50;;;;;;5012221;28;20232;-48
2024/02/04 03:16:36;;;;;;;0.00;0.00;;;27.90;38.50;;;;;;5012335;28;20627;-45
2024/02/04 03:19:09;;;;;;;0.00;0.00;;;28.00;39.00;;;;;;5011611;28;20231;-45
2024/02/04 03:21:39;;;;;;;0.00;0.00;;;28.00;38.20;;;;;;5012564;28;20259;-48
2024/02/04 03:24:10;;;;;;;0.00;0.00;;;28.00;38.30;;;;;;5012773;28;20209;-48
2024/02/04 03:26:43;;;;;;;0.00;0.00;;;28.00;38.00;;;;;;4995315;28;20198;-48
2024/02/04 03:29:14;;;;;;;0.00;0.00;;;28.10;37.90;;;;;;4992707;28;20261;-46
2024/02/04 03:31:45;;;;;;;0.00;0.00;;;28.10;37.90;;;;;;4992536;28;20284;-49
2024/02/04 03:34:16;;;;;;;0.00;0.00;;;28.10;38.10;;;;;;4992336;28;20197;-43
2024/02/04 03:36:47;;;;;;;0.00;0.00;;;28.20;38.10;;;;;;4993373;28;20197;-43
2024/02/04 03:39:17;;;;;;;0.00;0.00;;;28.20;38.00;;;;;;4992814;28;20201;-42
2024/02/04 03:41:50;;;;;;;0.00;0.00;;;28.20;37.80;;;;;;5011259;28;20232;-45
2024/02/04 03:44:21;;;;;;;0.00;0.00;;;28.20;37.40;;;;;;5012305;28;20282;-44
2024/02/04 03:46:52;;;;;;;0.00;0.00;;;28.30;37.40;;;;;;5006156;28;20238;-47
2024/02/04 03:49:23;;;;;;;0.00;0.00;;;28.30;37.50;;;;;;5000093;28;20228;-46
2024/02/04 03:51:54;;;;;;;0.00;0.00;;;28.30;37.60;;;;;;5008106;28;20201;-46
2024/02/04 03:54:25;;;;;;;0.00;0.00;;;28.40;37.80;;;;;;5008769;28;20205;-44
2024/02/04 03:56:58;;;;;;;0.00;0.00;;;28.40;37.80;;;;;;5002490;28;20233;-47
2024/02/04 03:59:29;;;;;;;0.00;0.00;;;28.40;37.90;;;;;;4990937;28;20676;-46
2024/02/04 04:02:00;;;;;;;0.00;0.00;;;28.40;37.90;;;;;;5007293;28;20299;-46
2024/02/04 04:04:30;;;;;;;0.00;0.00;;;28.50;37.90;;;;;;4991239;28;20768;-46
2024/02/04 04:07:01;;;;;;;0.00;0.00;;;28.50;37.90;;;;;;5008151;28;20832;-45
2024/02/04 04:09:32;;;;;;;0.00;0.00;;;28.50;38.00;;;;;;5008038;28;20264;-46
2024/02/04 04:12:05;;;;;;;0.00;0.00;;;28.50;38.00;;;;;;5007644;28;20196;-47
2024/02/04 04:14:35;;;;;;;0.00;0.00;;;28.60;38.00;;;;;;5007210;28;20657;-48
2024/02/04 04:17:06;;;;;;;0.00;0.00;;;28.60;37.90;;;;;;5007980;28;20224;-50
2024/02/04 04:19:37;;;;;;;0.00;0.00;;;28.60;37.80;;;;;;5006630;28;20205;-45
2024/02/04 04:22:08;;;;;;;0.00;0.00;;;28.60;37.80;;;;;;5008020;28;20200;-41
2024/02/04 04:24:40;;;;;;;0.00;0.00;;;28.70;37.80;;;;;;5008058;28;20204;-43
2024/02/04 04:27:13;;;;;;;0.00;0.00;;;28.70;37.80;;;;;;5007682;28;20728;-48
2024/02/04 04:29:44;;;;;;;0.00;0.00;;;28.70;37.90;;;;;;5007908;28;20259;-48
2024/02/04 04:32:14;;;;;;;0.00;0.00;;;28.80;37.80;;;;;;5007302;28;20217;-45
2024/02/04 04:34:45;;;;;;;0.00;0.00;;;28.80;37.70;;;;;;5007950;28;20287;-47
2024/02/04 04:37:16;;;;;;;0.00;0.00;;;28.80;37.60;;;;;;5006535;28;20305;-47
2024/02/04 04:39:47;;;;;;;0.00;0.00;;;28.90;37.50;;;;;;5009935;28;20201;-46
2024/02/04 04:42:19;;;;;;;0.00;0.00;;;28.90;37.30;;;;;;5008472;28;20564;-47
2024/02/04 04:44:50;;;;;;;0.00;0.00;;;28.90;37.20;;;;;;4992404;28;20207;-42
2024/02/04 04:47:21;;;;;;;0.00;0.00;;;28.90;37.20;;;;;;4991140;28;20228;-44
2024/02/04 04:49:51;;;;;;;0.00;0.00;;;29.00;37.20;;;;;;4991895;28;20233;-48
2024/02/04 04:52:22;;;;;;;0.00;0.00;;;29.00;37.20;;;;;;5008169;28;20200;-48
2024/02/04 04:54:53;;;;;;;0.00;0.00;;;29.00;37.10;;;;;;5012501;28;20200;-42
2024/02/04 04:57:26;;;;;;;0.00;0.00;;;29.00;36.90;;;;;;5010952;28;20231;-49
2024/02/04 04:59:58;;;;;;;0.00;0.00;;;29.10;36.90;;;;;;5011550;28;20196;-44
2024/02/04 05:02:29;;;;;;;0.00;0.00;;;29.10;36.70;;;;;;5010905;28;20196;-47
2024/02/04 05:05:00;;;;;;;0.00;0.00;;;29.10;36.70;;;;;;5011160;28;20247;-48
2024/02/04 05:07:30;;;;;;;0.00;0.00;;;29.20;36.60;;;;;;5011653;28;20715;-46
2024/02/04 05:10:01;;;;;;;0.00;0.00;;;29.10;36.40;;;;;;5010902;28;20243;-46
2024/02/04 05:12:34;;;;;;;0.00;0.00;;;29.20;36.40;;;;;;5011495;28;20201;-46
2024/02/04 05:15:05;;;;;;;0.00;0.00;;;29.20;36.30;;;;;;5010969;28;20214;-48
2024/02/04 05:17:36;;;;;;;0.00;0.00;;;29.20;36.40;;;;;;5010395;28;20221;-46
2024/02/04 05:20:08;;;;;;;0.00;0.00;;;29.20;36.40;;;;;;5010994;28;20197;-47
2024/02/04 05:22:38;;;;;;;0.00;0.00;;;29.20;36.50;;;;;;5011260;28;20542;-48
2024/02/04 05:25:10;;;;;;;0.00;0.00;;;29.30;36.40;;;;;;4997832;28;20198;-48
2024/02/04 05:27:42;;;;;;;0.00;0.00;;;29.30;36.40;;;;;;4990941;28;20744;-45
2024/02/04 05:30:14;;;;;;;0.00;0.00;;;29.30;36.40;;;;;;4992090;28;20232;-48
2024/02/04 05:32:45;;;;;;;0.00;0.00;;;29.30;36.30;;;;;;4996603;28;20559;-45
2024/02/04 05:35:16;;;;;;;0.00;0.00;;;29.30;36.20;;;;;;5011018;28;20661;-48
2024/02/04 05:37:47;;;;;;;0.00;0.00;;;29.40;36.30;;;;;;5011405;28;20217;-48
2024/02/04 05:40:18;;;;;;;0.00;0.00;;;29.40;36.20;;;;;;5010739;28;20220;-49
2024/02/04 05:42:51;;;;;;;0.00;0.00;;;29.40;36.30;;;;;;5010156;28;20215;-45
2024/02/04 05:45:22;;;;;;;0.00;0.00;;;29.40;36.30;;;;;;5010640;28;20212;-47
2024/02/04 05:47:53;;;;;;;0.00;0.00;;;29.40;36.40;;;;;;5010040;28;20224;-48
2024/02/04 05:50:23;;;;;;;0.00;0.00;;;29.40;36.40;;;;;;5009462;28;20235;-48
2024/02/04 05:52:54;;;;;;;0.00;0.00;;;29.40;36.40;;;;;;5011456;28;20208;-47
2024/02/04 05:55:25;;;;;;;0.00;0.00;;;29.40;36.40;;;;;;5011054;28;20205;-48
2024/02/04 05:57:57;;;;;;;0.00;0.00;;;29.40;36.40;;;;;;5010635;28;20221;-45
2024/02/04 06:00:28;;;;;;;0.00;0.00;;;29.50;36.50;;;;;;5009985;28;20201;-45
2024/02/04 06:02:59;;;;;;;0.00;0.00;;;29.40;36.40;;;;;;5010010;28;20201;-46
2024/02/04 06:05:30;;;;;;;0.00;0.00;;;29.40;36.50;;;;;;4997808;28;20197;-46
2024/02/04 06:08:01;;;;;;;0.00;0.00;;;29.40;36.40;;;;;;4990264;28;20229;-44
2024/02/04 06:10:31;;;;;;;0.00;0.00;;;29.50;36.60;;;;;;4999247;28;20232;-46
2024/02/04 06:13:04;;;;;;;0.00;0.00;;;29.50;36.70;;;;;;4994640;28;20224;-48
2024/02/04 06:15:35;;;;;;;0.00;0.00;;;29.50;36.60;;;;;;5004788;28;20188;-46
2024/02/04 06:18:06;;;;;;;0.00;0.00;;;29.50;36.40;;;;;;5007818;28;20268;-46
2024/02/04 06:20:37;;;;;;;0.00;0.00;;;29.50;36.40;;;;;;5009566;28;20197;-45
2024/02/04 06:23:07;;;;;;;0.00;0.00;;;29.50;36.50;;;;;;5009714;28;20310;-45
2024/02/04 06:25:38;;;;;;;0.00;0.00;;;29.50;36.40;;;;;;5009541;28;20196;-46
2024/02/04 06:28:11;;;;;;;0.00;0.00;;;29.50;36.50;;;;;;5009684;28;20224;-45
2024/02/04 06:30:42;;;;;;;0.00;0.00;;;29.50;36.50;;;;;;5009608;28;20235;-45
2024/02/04 06:33:12;;;;;;;0.00;0.00;;;29.50;36.50;;;;;;5009757;28;20201;-45
2024/02/04 06:35:43;;;;;;;0.00;0.00;;;29.50;36.40;;;;;;5008843;28;20656;-49
2024/02/04 06:38:14;;;;;;;0.00;0.00;;;29.50;36.40;;;;;;5010142;28;20233;-43
2024/02/04 06:40:44;;;;;;;0.00;0.00;;;29.50;36.30;;;;;;5009769;28;20209;-47
2024/02/04 06:43:17;;;;;;;0.00;0.00;;;29.50;36.30;;;;;;5009525;28;20209;-45
2024/02/04 06:45:48;;;;;;;0.00;0.00;;;29.50;36.40;;;;;;5005862;28;20200;-46
2024/02/04 06:48:21;;;;;;;0.00;0.00;;;29.50;36.40;;;;;;5008714;28;20224;-45
2024/02/04 06:50:52;;;;;;;0.00;0.00;;;29.50;36.40;;;;;;5009864;28;20521;-45
2024/02/04 06:53:23;;;;;;;0.00;0.00;;;29.50;36.40;;;;;;5009457;28;20208;-50
2024/02/04 06:55:54;;;;;;;0.00;0.00;;;29.50;36.30;;;;;;5009785;28;20583;-44
2024/02/04 06:58:27;;;;;;;0.00;0.00;;;29.50;36.30;;;;;;5008722;28;20227;-45
2024/02/04 07:00:58;;;;;;;0.00;0.00;;;29.50;36.30;;;;;;5009324;28;20200;-48
2024/02/04 07:03:29;;;;;;;0.00;0.00;;;29.50;36.10;;;;;;5009124;28;20204;-45
2024/02/04 07:06:00;;;;;;;0.00;0.00;;;29.50;36.10;;;;;;5009397;28;20728;-45
2024/02/04 07:08:31;;;;;;;0.00;0.00;;;29.40;36.00;;;;;;5009215;28;20227;-46
2024/02/04 07:11:02;;;;;;;0.00;0.00;;;29.50;36.10;;;;;;5008902;28;20233;-45
2024/02/04 07:13:35;;;;;;;0.00;0.00;;;29.40;36.10;;;;;;5009185;28;20219;-46
2024/02/04 07:16:06;;;;;;;0.00;0.00;;;29.50;36.20;;;;;;5008808;28;20910;-44
2024/02/04 07:18:37;;;;;;;0.00;0.00;;;29.50;36.30;;;;;;5009014;28;20220;-46
2024/02/04 07:21:08;;;;;;;0.00;0.00;;;29.40;36.30;;;;;;5009105;28;20207;-47
2024/02/04 07:23:39;;;;;;;0.00;0.00;;;29.50;36.40;;;;;;5008802;28;20207;-43
2024/02/04 07:26:09;;;;;;;0.00;0.00;;;29.50;36.30;;;;;;5007052;28;20197;-45
2024/02/04 07:28:42;;;;;;;0.00;0.00;;;29.40;36.30;;;;;;5008938;28;20221;-46
2024/02/04 07:31:13;;;;;;;0.00;0.00;;;29.40;36.20;;;;;;5008581;28;20758;-46
2024/02/04 07:33:44;;;;;;;0.00;0.00;;;29.40;36.10;;;;;;5007859;28;20204;-50
2024/02/04 07:36:15;;;;;;;0.00;0.00;;;29.30;36.00;;;;;;4997487;28;20202;-48
2024/02/04 07:38:46;;;;;;;0.00;0.00;;;29.30;35.90;;;;;;4988782;28;20221;-45
2024/02/04 07:41:19;;;;;;;0.00;0.00;;;29.30;35.80;;;;;;5007191;28;20211;-49
2024/02/04 07:43:51;;;;;;;0.00;0.00;;;29.30;35.80;;;;;;5008467;28;20207;-46
2024/02/04 07:46:22;;;;;;;0.00;0.00;;;29.20;35.60;;;;;;5008035;28;20200;-45
2024/02/04 07:48:53;;;;;;;0.00;0.00;;;29.20;35.70;;;;;;5008201;28;20227;-47
2024/02/04 07:51:23;;;;;;;0.00;0.00;;;29.20;35.70;;;;;;5008757;28;20239;-47
2024/02/04 07:53:54;;;;;;;0.00;0.00;;;29.20;35.60;;;;;;5007865;28;20577;-46
2024/02/04 07:56:25;;;;;;;0.00;0.00;;;29.10;35.60;;;;;;5008507;28;20600;-45
2024/02/04 07:58:57;;;;;;;0.00;0.00;;;29.10;36.30;;;;;;4999147;28;20237;-43
2024/02/04 08:01:28;;;;;;;0.00;0.00;;;29.10;35.70;;;;;;4988581;28;20201;-43
2024/02/04 08:03:59;;;;;;;0.00;0.00;;;29.10;35.70;;;;;;4988971;28;20201;-48
2024/02/04 08:06:30;;;;;;;0.00;0.00;;;29.00;35.70;;;;;;5000773;28;20559;-46
2024/02/04 08:09:01;;;;;;;0.00;0.00;;;29.00;35.80;;;;;;5008140;28;20197;-41
2024/02/04 08:11:31;;;;;;;0.00;0.00;;;29.00;35.80;;;;;;5004126;28;20239;-45
2024/02/04 08:14:04;;;;;;;0.00;0.00;;;29.00;35.90;;;;;;5006577;28;20228;-47
2024/02/04 08:16:35;;;;;;;0.00;0.00;;;28.90;35.70;;;;;;5005581;28;20201;-49
2024/02/04 08:19:06;;;;;;;0.00;0.00;;;28.90;35.80;;;;;;5007912;28;20212;-45
2024/02/04 08:21:37;;;;;;;0.00;0.00;;;28.90;35.80;;;;;;5008250;28;20200;-47
2024/02/04 08:24:08;;;;;;;0.00;0.00;;;28.90;35.80;;;;;;5007720;28;20226;-48
2024/02/04 08:26:39;;;;;;;0.00;0.00;;;28.90;35.80;;;;;;5007745;28;20246;-47
2024/02/04 08:29:11;;;;;;;0.00;0.00;;;28.80;35.70;;;;;;5007403;28;20211;-50
2024/02/04 08:31:42;;;;;;;0.00;0.00;;;28.80;35.70;;;;;;5006570;28;20586;-48
2024/02/04 08:34:13;;;;;;;0.00;0.00;;;28.70;35.80;;;;;;5007326;28;20208;-46
2024/02/04 08:36:43;;;;;;;0.00;0.00;;;28.70;35.80;;;;;;5007200;28;20232;-46
2024/02/04 08:39:14;;;;;;;0.00;0.00;;;28.70;35.80;;;;;;5006381;28;20238;-48
2024/02/04 08:41:45;;;;;;;0.00;0.00;;;28.60;35.80;;;;;;5007156;28;20657;-48
2024/02/04 08:44:18;;;;;;;0.00;0.00;;;28.60;35.80;;;;;;5004953;28;20196;-47
2024/02/04 08:46:49;;;;;;;0.00;0.00;;;28.60;35.70;;;;;;4999120;28;20583;-49
2024/02/04 08:49:19;;;;;;;0.00;0.00;;;28.50;35.70;;;;;;4989051;28;20201;-49
2024/02/04 08:51:50;;;;;;;0.00;0.00;;;28.50;35.80;;;;;;4986736;28;20256;-47
2024/02/04 08:54:21;;;;;;;0.00;0.00;;;28.50;35.80;;;;;;4988168;28;20212;-49
2024/02/04 08:56:52;;;;;;;0.00;0.00;;;28.50;35.80;;;;;;4987706;28;20213;-49
2024/02/04 08:59:25;;;;;;;0.00;0.00;;;28.40;35.80;;;;;;4997939;28;20365;-48
2024/02/04 09:01:56;;;;;;;0.00;0.00;;;28.40;35.80;;;;;;5007460;28;20204;-48
2024/02/04 09:04:26;;;;;;;0.00;0.00;;;28.40;35.90;;;;;;5007557;28;20219;-48
2024/02/04 09:06:57;;;;;;;0.00;0.00;;;28.30;35.80;;;;;;5007770;28;20224;-48
2024/02/04 09:09:28;;;;;;;0.00;0.00;;;28.30;35.80;;;;;;5007587;28;20192;-48
2024/02/04 09:11:59;;;;;;;0.00;0.00;;;28.30;35.90;;;;;;5007768;28;20814;-49
2024/02/04 09:14:31;;;;;;;0.00;0.00;;;28.20;35.90;;;;;;5006372;28;20203;-45
2024/02/04 09:17:04;;;;;;;0.00;0.00;;;28.20;35.90;;;;;;5001280;28;20285;-43
2024/02/04 09:19:35;;;;;;;0.00;0.00;;;28.20;36.00;;;;;;4987701;28;20491;-47
2024/02/04 09:22:06;;;;;;;0.00;0.00;;;28.20;36.00;;;;;;4987709;28;20338;-48
2024/02/04 09:24:37;;;;;;;0.00;0.00;;;28.20;36.00;;;;;;5000189;28;20205;-49
2024/02/04 09:27:08;;;;;;;0.00;0.00;;;28.10;36.60;;;;;;5011059;28;20217;-47
2024/02/04 09:29:40;;;;;;;0.00;0.00;;;28.10;35.90;;;;;;5010773;28;20209;-46
2024/02/04 09:32:11;;;;;;;0.00;0.00;;;28.10;35.90;;;;;;5010970;28;20224;-47
2024/02/04 09:34:42;;;;;;;0.00;0.00;;;28.00;35.90;;;;;;5005739;28;20198;-49
2024/02/04 09:37:13;;;;;;;0.00;0.00;;;28.00;35.90;;;;;;4990611;28;20325;-49
2024/02/04 09:39:43;;;;;;;0.00;0.00;;;27.90;35.90;;;;;;4994881;28;20201;-48
2024/02/04 09:42:23;;;;;;;0.00;0.00;;;27.90;35.90;;;;;;5010240;28;20581;-46
2024/02/04 09:44:56;;;;;;;0.00;0.00;;;27.90;35.90;;;;;;5011833;28;20287;-49
2024/02/04 09:47:27;;;;;;;0.00;0.00;;;27.90;36.00;;;;;;5010019;28;20216;-47
2024/02/04 09:49:58;;;;;;;0.00;0.00;;;27.80;36.00;;;;;;5011443;28;20200;-48
2024/02/04 09:52:32;;;;;;;0.00;0.00;;;27.80;36.00;;;;;;5011035;28;20229;-45
2024/02/04 09:55:05;;;;;;;0.00;0.00;;;27.80;36.10;;;;;;5010875;28;20208;-46
2024/02/04 09:57:39;;;;;;;0.00;0.00;;;27.80;36.10;;;;;;5010387;28;20240;-44
2024/02/04 10:00:15;;;;;;;0.00;0.00;;;27.80;36.20;;;;;;5010623;28;20208;-45
2024/02/04 10:02:46;;;;;;;0.00;0.00;;;27.70;36.10;;;;;;5007603;28;20205;-45
2024/02/04 10:05:17;;;;;;;0.00;0.00;;;27.70;36.10;;;;;;5008412;28;20483;-46
2024/02/04 10:07:48;;;;;;;0.00;0.00;;;27.70;36.10;;;;;;5011137;28;20251;-49
2024/02/04 10:10:19;;;;;;;0.00;0.00;;;27.70;36.10;;;;;;5009712;28;20211;-47
2024/02/04 10:12:49;;;;;;;0.00;0.00;;;27.60;36.10;;;;;;5010691;28;20203;-46
2024/02/04 10:15:22;;;;;;;0.00;0.00;;;27.60;36.10;;;;;;5009980;28;20205;-44
2024/02/04 10:17:53;;;;;;;0.00;0.00;;;27.60;36.00;;;;;;5010864;28;20589;-49
2024/02/04 10:20:24;;;;;;;0.00;0.00;;;27.60;36.00;;;;;;5009295;28;20284;-45
2024/02/04 10:22:55;;;;;;;0.00;0.00;;;27.60;36.10;;;;;;5010090;28;20609;-45
2024/02/04 10:25:26;;;;;;;0.00;0.00;;;27.50;36.10;;;;;;5010350;28;20201;-48
2024/02/04 10:27:57;;;;;;;0.00;0.00;;;27.50;36.10;;;;;;5008900;28;20221;-46
2024/02/04 10:30:31;;;;;;;0.00;0.00;;;27.50;36.10;;;;;;5010012;28;20201;-48
2024/02/04 10:33:02;;;;;;;0.00;0.00;;;27.50;36.10;;;;;;5009255;28;20558;-46
2024/02/04 10:35:33;;;;;;;0.00;0.00;;;27.40;36.10;;;;;;5009557;28;20201;-47
2024/02/04 10:38:04;;;;;;;0.00;0.00;;;27.40;36.10;;;;;;5008994;28;20230;-46
2024/02/04 10:40:35;;;;;;;0.00;0.00;;;27.40;36.20;;;;;;5005699;28;20201;-49
2024/02/04 10:43:09;;;;;;;0.00;0.00;;;27.30;36.10;;;;;;5009699;28;20212;-47
2024/02/04 10:45:44;;;;;;;0.00;0.00;;;27.30;36.10;;;;;;4990342;28;20208;-44
2024/02/04 10:48:18;;;;;;;0.00;0.00;;;27.30;36.20;;;;;;5008144;28;20256;-45
2024/02/04 10:50:52;;;;;;;0.00;0.00;;;27.20;36.20;;;;;;5009270;28;20228;-48
2024/02/04 10:53:23;;;;;;;0.00;0.00;;;27.30;36.30;;;;;;5009625;28;20204;-46
2024/02/04 10:56:01;;;;;;;0.00;0.00;;;27.20;36.30;;;;;;5009111;28;20215;-48
2024/02/04 10:58:32;;;;;;;0.00;0.00;;;27.20;36.40;;;;;;5008963;28;20262;-49
2024/02/04 11:01:06;;;;;;;0.00;0.00;;;27.20;36.40;;;;;;5001264;28;20661;-52
2024/02/04 11:03:37;;;;;;;0.00;0.00;;;27.20;36.40;;;;;;5009291;28;20671;-45
2024/02/04 11:06:08;;;;;;;0.00;0.00;;;27.10;36.30;;;;;;5009643;28;20638;-48
2024/02/04 11:08:40;;;;;;;0.00;0.00;;;27.10;36.40;;;;;;5009336;28;20221;-46
2024/02/04 11:11:11;;;;;;;0.00;0.00;;;27.10;36.40;;;;;;5009561;28;20236;-50
2024/02/04 11:13:44;;;;;;;0.00;0.00;;;27.10;36.40;;;;;;5008542;28;20558;-45
2024/02/04 11:16:31;;;;;;;0.00;0.00;;;27.10;36.40;;;;;;5009494;28;20208;-49
2024/02/04 11:19:23;;;;;;;0.00;0.00;;;27.00;36.40;;;;;;5008878;28;20560;-47
2024/02/04 11:22:12;;;;;;;0.00;0.00;;;27.00;36.40;;;;;;5009360;28;20552;-48
2024/02/04 11:25:13;;;;;;;0.00;0.00;;;27.00;36.40;;;;;;5008067;28;20736;-47
2024/02/04 11:27:44;;;;;;;0.00;0.00;;;26.90;36.40;;;;;;5001875;28;20704;-47
2024/02/04 11:30:15;;;;;;;0.00;0.00;;;26.90;36.50;;;;;;5008567;28;20205;-48
2024/02/04 11:32:49;;;;;;;0.00;0.00;;;26.90;36.50;;;;;;5008876;28;20639;-47
2024/02/04 11:35:19;;;;;;;0.00;0.00;;;26.90;36.60;;;;;;5008482;28;20649;-48
2024/02/04 11:37:50;;;;;;;0.00;0.00;;;26.90;36.60;;;;;;4996920;28;20625;-47
2024/02/04 11:40:24;;;;;;;0.00;0.00;;;26.80;36.60;;;;;;5005361;28;20203;-45
2024/02/04 11:43:04;;;;;;;0.00;0.00;;;26.80;36.60;;;;;;5008174;28;20239;-46
2024/02/04 11:45:35;;;;;;;0.00;0.00;;;26.70;36.60;;;;;;5008992;28;20212;-49
2024/02/04 11:48:10;;;;;;;0.00;0.00;;;26.80;36.70;;;;;;5008299;28;20216;-47
2024/02/04 11:50:44;;;;;;;0.00;0.00;;;26.80;36.70;;;;;;5008257;28;20551;-45
2024/02/04 11:53:16;;;;;;;0.00;0.00;;;26.70;36.70;;;;;;5008333;28;20232;-47
2024/02/04 11:55:47;;;;;;;0.00;0.00;;;26.70;36.70;;;;;;5008924;28;20209;-46
2024/02/04 11:58:18;;;;;;;0.00;0.00;;;26.70;36.80;;;;;;5008766;28;20216;-46
2024/02/04 12:00:49;;;;;;;0.00;0.00;;;26.70;36.70;;;;;;5008120;28;20201;-45
2024/02/04 12:03:32;;;;;;;0.00;0.00;;;26.60;36.70;;;;;;4996810;28;20215;-46
2024/02/04 12:06:03;;;;;;;0.00;0.00;;;26.60;36.80;;;;;;5005626;28;20201;-50
2024/02/04 12:08:35;;;;;;;0.00;0.00;;;26.60;36.80;;;;;;5011757;28;20216;-47
2024/02/04 12:11:07;;;;;;;0.00;0.00;;;26.60;36.80;;;;;;5011947;28;20204;-45
2024/02/04 12:13:39;;;;;;;0.00;0.00;;;26.50;36.70;;;;;;5012231;28;20196;-49
2024/02/04 12:16:10;;;;;;;0.00;0.00;;;26.50;36.80;;;;;;5011108;28;20195;-49
2024/02/04 12:18:51;;;;;;;0.00;0.00;;;26.50;36.80;;;;;;5011976;28;20594;-49
2024/02/04 12:21:23;;;;;;;0.00;0.00;;;26.50;36.90;;;;;;5011928;28;20200;-45
2024/02/04 12:23:54;;;;;;;0.00;0.00;;;26.50;36.90;;;;;;5011269;28;20193;-46
2024/02/04 12:26:25;;;;;;;0.00;0.00;;;26.50;36.90;;;;;;5011620;28;20201;-49
2024/02/04 12:28:55;;;;;;;0.00;0.00;;;26.40;36.90;;;;;;5011200;28;20213;-48
2024/02/04 12:31:31;;;;;;;0.00;0.00;;;26.40;37.00;;;;;;4995803;28;20213;-48
2024/02/04 12:34:04;;;;;;;0.00;0.00;;;26.40;37.00;;;;;;4992147;28;20251;-46
2024/02/04 12:36:35;;;;;;;0.00;0.00;;;26.40;37.10;;;;;;4992149;28;20646;-45
2024/02/04 12:39:09;;;;;;;0.00;0.00;;;26.40;37.00;;;;;;4992032;28;20732;-49
2024/02/04 12:41:40;;;;;;;0.00;0.00;;;26.30;37.00;;;;;;5009460;28;20676;-44
2024/02/04 12:44:11;;;;;;;0.00;0.00;;;26.30;37.10;;;;;;5011482;28;20303;-49
2024/02/04 12:46:42;;;;;;;0.00;0.00;;;26.30;37.10;;;;;;5011345;28;20219;-49
2024/02/04 12:49:21;;;;;;;0.00;0.00;;;26.30;37.10;;;;;;5011682;28;20204;-47
2024/02/04 12:51:55;;;;;;;0.00;0.00;;;26.30;37.10;;;;;;5011597;28;20278;-46
2024/02/04 12:54:26;;;;;;;0.00;0.00;;;26.30;37.10;;;;;;5010900;28;20193;-47
2024/02/04 12:56:58;;;;;;;0.00;0.00;;;26.20;37.10;;;;;;5010804;28;20225;-46
2024/02/04 12:59:29;;;;;;;0.00;0.00;;;26.20;37.00;;;;;;5011987;28;20203;-49
2024/02/04 13:02:01;;;;;;;0.00;0.00;;;26.20;37.00;;;;;;5014846;28;20200;-47
2024/02/04 13:04:37;;;;;;;0.00;0.00;;;26.20;37.10;;;;;;5014716;28;20189;-49
2024/02/04 13:07:12;;;;;;;0.00;0.00;;;26.20;37.10;;;;;;5013012;28;20223;-47
2024/02/04 13:09:43;;;;;;;0.00;0.00;;;26.20;37.10;;;;;;5013917;28;20224;-46
2024/02/04 13:12:17;;;;;;;0.00;0.00;;;26.10;37.10;;;;;;5005714;28;20225;-49